Etusivu
METAR-TAF:

METAR-TAF

Lentoasemat :

La Chaux-de-Fonds, Sveitsi

Leveyspiiri: 47-05-03N, Pituuspiiri: 006-47-37E, korkeus merenpinnasta: 1027 m

Tämänhetkinen sää

Tämä raportti tehtiin 15 minuuttia sitten, kello 19.50 UTC
Tuuli 4 kn lounaasta, vaihdellen etelän ja lännen/luoteen välillä
Lämpötila 2°C
Kosteus 100%
Ilmanpaine 1003 hPa
Näkyvyys: 6000 m
Pilvistä 400 ft:n korkeudessa
heikkoa tihkusadetta,

METAR: LSGC 031950Z AUTO 23004KT 170V290 6000 -DZ OVC004 02/02 Q1003

Aika: 21:05 (20:05 UTC)

Sääennuste

Tämä raportti tehtiin 3 tuntia ja 55 minuuttia sitten, kello 16.10 UTC
Ennuste voimassa 03. päivästä klo 16 UTC - 03. päivään klo 24 UTC
Tuuli 7 kn luoteesta
Näkyvyys 10 km tai enemmän
Hajonneita pilviä 2000 ft:n korkeudessa
Ajoittain
03. päivästä klo 16 UTC - 03. päivään klo 24 UTC
Näkyvyys: 0200 m
100 ft:n korkeudessa
sumua,

TAF: LSGC 031610Z 0316/0324 32007KT 9999 BKN020 TEMPO 0316/0324 0200 FG VV001

Säähavainnot ja -ennusteet yli 4000 lentoasemalta (METAR- ja TAF-raportit).

Käytössä olevat sääasemat on merkitty karttaan keltaisilla ja punaisilla pisteillä.

Aseta hiiri pisteen päälle nähdäksesi sääaseman nimen.

Klikkaa sitten nähdäksesi säähavainnot ja -ennusteet.

Kartan vaihtaminen: klikkaa mustalla rastilla varustettuja vihreitä pisteitä, niin voit zoomata sisään; viivalla varustettua vihreää pistettä, niin voit zoomata ulos tai vihreitä nuolia, niin pääset viereisille kartoille.


METAR-TAF: